sensor_id;sensor_type;location;lat;lon;timestamp;P1;durP1;ratioP1;P2;durP2;ratioP2
29044;SDS011;16133;49.486;12.176;2023-06-14T00:00:48;8.70;;;3.72;;
29044;SDS011;16133;49.486;12.176;2023-06-14T00:03:14;8.27;;;3.40;;
29044;SDS011;16133;49.486;12.176;2023-06-14T00:05:42;4.78;;;3.00;;
29044;SDS011;16133;49.486;12.176;2023-06-14T00:08:08;4.43;;;3.10;;
29044;SDS011;16133;49.486;12.176;2023-06-14T00:10:36;19.77;;;3.58;;
29044;SDS011;16133;49.486;12.176;2023-06-14T00:13:02;5.75;;;3.67;;
29044;SDS011;16133;49.486;12.176;2023-06-14T00:15:29;5.22;;;3.28;;
29044;SDS011;16133;49.486;12.176;2023-06-14T00:17:56;5.30;;;3.42;;
29044;SDS011;16133;49.486;12.176;2023-06-14T00:20:21;6.82;;;3.47;;
29044;SDS011;16133;49.486;12.176;2023-06-14T00:22:47;4.15;;;2.72;;
29044;SDS011;16133;49.486;12.176;2023-06-14T00:25:13;6.90;;;3.70;;
29044;SDS011;16133;49.486;12.176;2023-06-14T00:27:38;4.10;;;3.00;;
29044;SDS011;16133;49.486;12.176;2023-06-14T00:30:04;7.80;;;3.97;;
29044;SDS011;16133;49.486;12.176;2023-06-14T00:32:30;4.63;;;3.30;;
29044;SDS011;16133;49.486;12.176;2023-06-14T00:34:55;5.47;;;3.58;;
29044;SDS011;16133;49.486;12.176;2023-06-14T00:37:21;5.68;;;3.58;;
29044;SDS011;16133;49.486;12.176;2023-06-14T00:39:46;5.63;;;3.45;;
29044;SDS011;16133;49.486;12.176;2023-06-14T00:42:22;5.32;;;4.07;;
29044;SDS011;16133;49.486;12.176;2023-06-14T00:44:48;6.35;;;3.45;;
29044;SDS011;16133;49.486;12.176;2023-06-14T00:47:13;4.60;;;3.17;;
29044;SDS011;16133;49.486;12.176;2023-06-14T00:49:39;5.43;;;3.58;;
29044;SDS011;16133;49.486;12.176;2023-06-14T00:52:04;5.78;;;3.70;;
29044;SDS011;16133;49.486;12.176;2023-06-14T00:54:31;4.65;;;3.53;;
29044;SDS011;16133;49.486;12.176;2023-06-14T00:56:56;7.00;;;3.90;;
29044;SDS011;16133;49.486;12.176;2023-06-14T00:59:22;5.28;;;3.22;;
29044;SDS011;16133;49.486;12.176;2023-06-14T01:01:47;6.63;;;3.70;;
29044;SDS011;16133;49.486;12.176;2023-06-14T01:04:13;5.82;;;3.80;;
29044;SDS011;16133;49.486;12.176;2023-06-14T01:12:16;7.95;;;4.43;;
29044;SDS011;16133;49.486;12.176;2023-06-14T01:14:47;6.18;;;3.75;;
29044;SDS011;16133;49.486;12.176;2023-06-14T01:17:14;4.93;;;3.60;;
29044;SDS011;16133;49.486;12.176;2023-06-14T01:19:44;5.72;;;4.32;;
29044;SDS011;16133;49.486;12.176;2023-06-14T01:22:10;7.68;;;4.22;;
29044;SDS011;16133;49.486;12.176;2023-06-14T01:24:36;5.95;;;4.15;;
29044;SDS011;16133;49.486;12.176;2023-06-14T01:27:04;6.72;;;4.30;;
29044;SDS011;16133;49.486;12.176;2023-06-14T01:29:32;7.63;;;3.95;;
29044;SDS011;16133;49.486;12.176;2023-06-14T01:31:58;7.53;;;4.13;;
29044;SDS011;16133;49.486;12.176;2023-06-14T01:34:25;6.57;;;4.22;;
29044;SDS011;16133;49.486;12.176;2023-06-14T01:36:51;5.07;;;3.75;;
29044;SDS011;16133;49.486;12.176;2023-06-14T01:39:19;7.75;;;3.92;;
29044;SDS011;16133;49.486;12.176;2023-06-14T01:41:46;4.45;;;3.45;;
29044;SDS011;16133;49.486;12.176;2023-06-14T01:44:12;7.50;;;4.38;;
29044;SDS011;16133;49.486;12.176;2023-06-14T01:46:40;7.68;;;4.57;;
29044;SDS011;16133;49.486;12.176;2023-06-14T01:49:07;5.63;;;4.00;;
29044;SDS011;16133;49.486;12.176;2023-06-14T01:51:33;5.38;;;3.72;;
29044;SDS011;16133;49.486;12.176;2023-06-14T01:53:58;7.78;;;4.13;;
29044;SDS011;16133;49.486;12.176;2023-06-14T01:56:25;5.22;;;3.60;;
29044;SDS011;16133;49.486;12.176;2023-06-14T01:58:51;4.88;;;3.75;;
29044;SDS011;16133;49.486;12.176;2023-06-14T02:01:16;3.72;;;3.30;;
29044;SDS011;16133;49.486;12.176;2023-06-14T02:03:43;6.28;;;4.22;;
29044;SDS011;16133;49.486;12.176;2023-06-14T02:06:10;5.93;;;3.70;;
29044;SDS011;16133;49.486;12.176;2023-06-14T02:08:35;8.23;;;4.50;;
29044;SDS011;16133;49.486;12.176;2023-06-14T02:11:01;5.68;;;4.25;;
29044;SDS011;16133;49.486;12.176;2023-06-14T02:13:26;6.05;;;4.22;;
29044;SDS011;16133;49.486;12.176;2023-06-14T02:15:52;5.57;;;3.95;;
29044;SDS011;16133;49.486;12.176;2023-06-14T02:18:19;6.75;;;3.80;;
29044;SDS011;16133;49.486;12.176;2023-06-14T02:20:46;6.10;;;4.00;;
29044;SDS011;16133;49.486;12.176;2023-06-14T02:23:12;9.15;;;4.18;;
29044;SDS011;16133;49.486;12.176;2023-06-14T02:25:37;7.72;;;4.57;;
29044;SDS011;16133;49.486;12.176;2023-06-14T02:28:04;8.35;;;3.78;;
29044;SDS011;16133;49.486;12.176;2023-06-14T02:30:30;7.05;;;4.28;;
29044;SDS011;16133;49.486;12.176;2023-06-14T02:32:56;6.22;;;4.25;;
29044;SDS011;16133;49.486;12.176;2023-06-14T02:35:21;5.70;;;3.92;;
29044;SDS011;16133;49.486;12.176;2023-06-14T02:37:51;7.07;;;3.90;;
29044;SDS011;16133;49.486;12.176;2023-06-14T02:40:17;8.63;;;4.53;;
29044;SDS011;16133;49.486;12.176;2023-06-14T02:42:43;7.03;;;4.82;;
29044;SDS011;16133;49.486;12.176;2023-06-14T02:45:09;6.22;;;4.20;;
29044;SDS011;16133;49.486;12.176;2023-06-14T02:47:34;7.28;;;4.40;;
29044;SDS011;16133;49.486;12.176;2023-06-14T02:50:00;7.78;;;3.97;;
29044;SDS011;16133;49.486;12.176;2023-06-14T02:52:25;6.60;;;4.65;;
29044;SDS011;16133;49.486;12.176;2023-06-14T02:54:51;7.07;;;4.15;;
29044;SDS011;16133;49.486;12.176;2023-06-14T02:57:17;7.07;;;4.20;;
29044;SDS011;16133;49.486;12.176;2023-06-14T02:59:42;6.10;;;3.80;;
29044;SDS011;16133;49.486;12.176;2023-06-14T03:02:07;8.57;;;4.78;;
29044;SDS011;16133;49.486;12.176;2023-06-14T03:04:33;8.88;;;5.13;;
29044;SDS011;16133;49.486;12.176;2023-06-14T03:07:02;5.45;;;4.15;;
29044;SDS011;16133;49.486;12.176;2023-06-14T03:09:34;9.68;;;4.65;;
29044;SDS011;16133;49.486;12.176;2023-06-14T03:12:01;7.32;;;4.20;;
29044;SDS011;16133;49.486;12.176;2023-06-14T03:14:28;5.85;;;4.40;;
29044;SDS011;16133;49.486;12.176;2023-06-14T03:16:54;9.70;;;5.07;;
29044;SDS011;16133;49.486;12.176;2023-06-14T03:19:21;7.40;;;5.40;;
29044;SDS011;16133;49.486;12.176;2023-06-14T03:21:51;6.68;;;4.38;;
29044;SDS011;16133;49.486;12.176;2023-06-14T03:24:17;8.07;;;4.70;;
29044;SDS011;16133;49.486;12.176;2023-06-14T03:26:42;6.78;;;4.60;;
29044;SDS011;16133;49.486;12.176;2023-06-14T03:29:08;7.15;;;4.25;;
29044;SDS011;16133;49.486;12.176;2023-06-14T03:31:34;9.68;;;5.32;;
29044;SDS011;16133;49.486;12.176;2023-06-14T03:34:00;13.25;;;5.10;;
29044;SDS011;16133;49.486;12.176;2023-06-14T03:36:26;6.32;;;5.03;;
29044;SDS011;16133;49.486;12.176;2023-06-14T03:38:53;7.32;;;4.90;;
29044;SDS011;16133;49.486;12.176;2023-06-14T03:41:19;7.65;;;5.28;;
29044;SDS011;16133;49.486;12.176;2023-06-14T03:43:45;6.93;;;4.43;;
29044;SDS011;16133;49.486;12.176;2023-06-14T03:46:10;8.02;;;4.78;;
29044;SDS011;16133;49.486;12.176;2023-06-14T03:48:35;6.38;;;4.78;;
29044;SDS011;16133;49.486;12.176;2023-06-14T03:51:01;6.05;;;4.30;;
29044;SDS011;16133;49.486;12.176;2023-06-14T03:53:27;7.78;;;4.65;;
29044;SDS011;16133;49.486;12.176;2023-06-14T03:55:54;8.65;;;5.15;;
29044;SDS011;16133;49.486;12.176;2023-06-14T03:58:19;7.68;;;4.78;;
29044;SDS011;16133;49.486;12.176;2023-06-14T04:00:45;7.47;;;5.50;;
29044;SDS011;16133;49.486;12.176;2023-06-14T04:03:10;7.18;;;4.88;;
29044;SDS011;16133;49.486;12.176;2023-06-14T04:05:38;9.90;;;4.63;;
29044;SDS011;16133;49.486;12.176;2023-06-14T04:08:07;7.38;;;4.90;;
29044;SDS011;16133;49.486;12.176;2023-06-14T04:10:37;7.30;;;4.80;;
29044;SDS011;16133;49.486;12.176;2023-06-14T04:13:02;6.88;;;4.75;;
29044;SDS011;16133;49.486;12.176;2023-06-14T04:15:27;8.63;;;4.93;;
29044;SDS011;16133;49.486;12.176;2023-06-14T04:17:53;8.23;;;5.18;;
29044;SDS011;16133;49.486;12.176;2023-06-14T04:20:22;6.65;;;4.55;;
29044;SDS011;16133;49.486;12.176;2023-06-14T04:22:49;8.68;;;5.43;;
29044;SDS011;16133;49.486;12.176;2023-06-14T04:25:14;7.15;;;4.65;;
29044;SDS011;16133;49.486;12.176;2023-06-14T04:27:40;8.82;;;6.10;;
29044;SDS011;16133;49.486;12.176;2023-06-14T04:30:06;7.45;;;4.80;;
29044;SDS011;16133;49.486;12.176;2023-06-14T04:32:32;6.68;;;4.60;;
29044;SDS011;16133;49.486;12.176;2023-06-14T04:35:07;7.00;;;4.50;;
29044;SDS011;16133;49.486;12.176;2023-06-14T04:37:33;8.00;;;5.50;;
29044;SDS011;16133;49.486;12.176;2023-06-14T04:39:58;7.03;;;4.35;;
29044;SDS011;16133;49.486;12.176;2023-06-14T04:42:24;7.15;;;4.60;;
29044;SDS011;16133;49.486;12.176;2023-06-14T04:44:50;8.00;;;4.07;;
29044;SDS011;16133;49.486;12.176;2023-06-14T04:47:17;10.07;;;4.55;;
29044;SDS011;16133;49.486;12.176;2023-06-14T04:49:43;7.90;;;4.40;;
29044;SDS011;16133;49.486;12.176;2023-06-14T04:52:08;9.18;;;4.60;;
29044;SDS011;16133;49.486;12.176;2023-06-14T04:54:35;7.28;;;4.70;;
29044;SDS011;16133;49.486;12.176;2023-06-14T04:57:02;7.93;;;4.32;;
29044;SDS011;16133;49.486;12.176;2023-06-14T04:59:29;8.95;;;5.45;;
29044;SDS011;16133;49.486;12.176;2023-06-14T05:01:58;11.50;;;4.40;;
29044;SDS011;16133;49.486;12.176;2023-06-14T05:04:25;5.82;;;4.15;;
29044;SDS011;16133;49.486;12.176;2023-06-14T05:06:51;5.63;;;3.83;;
29044;SDS011;16133;49.486;12.176;2023-06-14T05:09:19;6.22;;;3.97;;
29044;SDS011;16133;49.486;12.176;2023-06-14T05:11:45;6.65;;;4.07;;
29044;SDS011;16133;49.486;12.176;2023-06-14T05:14:11;5.95;;;3.72;;
29044;SDS011;16133;49.486;12.176;2023-06-14T05:16:36;4.55;;;3.67;;
29044;SDS011;16133;49.486;12.176;2023-06-14T05:19:02;5.50;;;4.18;;
29044;SDS011;16133;49.486;12.176;2023-06-14T05:21:29;6.22;;;3.60;;
29044;SDS011;16133;49.486;12.176;2023-06-14T05:23:55;6.40;;;4.53;;
29044;SDS011;16133;49.486;12.176;2023-06-14T05:26:21;6.20;;;3.50;;
29044;SDS011;16133;49.486;12.176;2023-06-14T05:28:53;5.87;;;3.47;;
29044;SDS011;16133;49.486;12.176;2023-06-14T05:31:25;7.20;;;4.47;;
29044;SDS011;16133;49.486;12.176;2023-06-14T05:33:50;6.78;;;3.67;;
29044;SDS011;16133;49.486;12.176;2023-06-14T05:36:16;5.47;;;3.40;;
29044;SDS011;16133;49.486;12.176;2023-06-14T05:38:41;10.32;;;3.53;;
29044;SDS011;16133;49.486;12.176;2023-06-14T05:41:07;6.43;;;3.85;;
29044;SDS011;16133;49.486;12.176;2023-06-14T05:43:32;3.55;;;2.63;;
29044;SDS011;16133;49.486;12.176;2023-06-14T05:45:58;5.15;;;3.58;;
29044;SDS011;16133;49.486;12.176;2023-06-14T05:48:23;5.95;;;3.30;;
29044;SDS011;16133;49.486;12.176;2023-06-14T05:50:48;5.07;;;3.35;;
29044;SDS011;16133;49.486;12.176;2023-06-14T05:53:14;5.65;;;2.92;;
29044;SDS011;16133;49.486;12.176;2023-06-14T05:55:39;6.53;;;4.47;;
29044;SDS011;16133;49.486;12.176;2023-06-14T05:58:05;6.03;;;4.13;;
29044;SDS011;16133;49.486;12.176;2023-06-14T06:00:30;7.63;;;3.75;;
29044;SDS011;16133;49.486;12.176;2023-06-14T06:02:56;4.50;;;3.60;;
29044;SDS011;16133;49.486;12.176;2023-06-14T06:05:22;5.38;;;3.92;;
29044;SDS011;16133;49.486;12.176;2023-06-14T06:07:48;5.32;;;3.28;;
29044;SDS011;16133;49.486;12.176;2023-06-14T06:10:14;6.90;;;3.20;;
29044;SDS011;16133;49.486;12.176;2023-06-14T06:12:41;8.52;;;3.90;;
29044;SDS011;16133;49.486;12.176;2023-06-14T06:15:07;4.75;;;3.25;;
29044;SDS011;16133;49.486;12.176;2023-06-14T06:17:36;6.60;;;3.45;;
29044;SDS011;16133;49.486;12.176;2023-06-14T06:20:02;3.65;;;3.35;;
29044;SDS011;16133;49.486;12.176;2023-06-14T06:22:28;6.50;;;3.90;;
29044;SDS011;16133;49.486;12.176;2023-06-14T06:24:53;6.38;;;3.83;;
29044;SDS011;16133;49.486;12.176;2023-06-14T06:27:19;5.13;;;3.95;;
29044;SDS011;16133;49.486;12.176;2023-06-14T06:29:45;5.30;;;3.53;;
29044;SDS011;16133;49.486;12.176;2023-06-14T06:32:10;5.75;;;3.75;;
29044;SDS011;16133;49.486;12.176;2023-06-14T06:34:36;6.78;;;3.90;;
29044;SDS011;16133;49.486;12.176;2023-06-14T06:37:02;5.88;;;3.88;;
29044;SDS011;16133;49.486;12.176;2023-06-14T06:39:27;6.43;;;4.03;;
29044;SDS011;16133;49.486;12.176;2023-06-14T06:41:53;5.55;;;3.58;;
29044;SDS011;16133;49.486;12.176;2023-06-14T06:44:18;5.18;;;4.00;;
29044;SDS011;16133;49.486;12.176;2023-06-14T06:46:44;5.18;;;3.40;;
29044;SDS011;16133;49.486;12.176;2023-06-14T06:49:09;4.93;;;3.88;;
29044;SDS011;16133;49.486;12.176;2023-06-14T06:51:36;8.43;;;4.40;;
29044;SDS011;16133;49.486;12.176;2023-06-14T06:54:02;6.05;;;3.03;;
29044;SDS011;16133;49.486;12.176;2023-06-14T06:56:28;5.07;;;3.67;;
29044;SDS011;16133;49.486;12.176;2023-06-14T06:58:54;7.20;;;3.65;;
29044;SDS011;16133;49.486;12.176;2023-06-14T07:01:19;7.10;;;3.97;;
29044;SDS011;16133;49.486;12.176;2023-06-14T07:03:45;5.22;;;3.50;;
29044;SDS011;16133;49.486;12.176;2023-06-14T07:06:10;4.78;;;3.53;;
29044;SDS011;16133;49.486;12.176;2023-06-14T07:08:36;5.97;;;3.28;;
29044;SDS011;16133;49.486;12.176;2023-06-14T07:11:03;3.55;;;2.97;;
29044;SDS011;16133;49.486;12.176;2023-06-14T07:13:29;11.38;;;3.83;;
29044;SDS011;16133;49.486;12.176;2023-06-14T07:15:56;4.70;;;3.45;;
29044;SDS011;16133;49.486;12.176;2023-06-14T07:18:23;3.65;;;3.15;;
29044;SDS011;16133;49.486;12.176;2023-06-14T07:20:49;4.53;;;3.28;;
29044;SDS011;16133;49.486;12.176;2023-06-14T07:23:15;4.88;;;3.47;;
29044;SDS011;16133;49.486;12.176;2023-06-14T07:25:40;6.32;;;3.70;;
29044;SDS011;16133;49.486;12.176;2023-06-14T07:28:05;4.07;;;3.30;;
29044;SDS011;16133;49.486;12.176;2023-06-14T07:30:32;6.22;;;3.22;;
29044;SDS011;16133;49.486;12.176;2023-06-14T07:32:57;5.30;;;3.10;;
29044;SDS011;16133;49.486;12.176;2023-06-14T07:35:22;4.30;;;3.30;;
29044;SDS011;16133;49.486;12.176;2023-06-14T07:37:48;4.10;;;3.30;;
29044;SDS011;16133;49.486;12.176;2023-06-14T07:40:14;4.03;;;3.28;;
29044;SDS011;16133;49.486;12.176;2023-06-14T07:42:40;4.57;;;3.22;;
29044;SDS011;16133;49.486;12.176;2023-06-14T07:45:05;5.00;;;3.63;;
29044;SDS011;16133;49.486;12.176;2023-06-14T07:47:32;7.18;;;3.20;;
29044;SDS011;16133;49.486;12.176;2023-06-14T07:49:57;5.63;;;3.53;;
29044;SDS011;16133;49.486;12.176;2023-06-14T07:52:23;5.68;;;3.55;;
29044;SDS011;16133;49.486;12.176;2023-06-14T07:54:48;5.13;;;3.40;;
29044;SDS011;16133;49.486;12.176;2023-06-14T07:57:14;6.55;;;3.20;;
29044;SDS011;16133;49.486;12.176;2023-06-14T07:59:39;4.25;;;3.55;;
29044;SDS011;16133;49.486;12.176;2023-06-14T08:02:05;3.72;;;3.13;;
29044;SDS011;16133;49.486;12.176;2023-06-14T08:04:31;5.50;;;3.90;;
29044;SDS011;16133;49.486;12.176;2023-06-14T08:06:57;5.55;;;3.72;;
29044;SDS011;16133;49.486;12.176;2023-06-14T08:09:22;3.45;;;2.92;;
29044;SDS011;16133;49.486;12.176;2023-06-14T08:11:49;5.50;;;3.40;;
29044;SDS011;16133;49.486;12.176;2023-06-14T08:14:14;5.80;;;3.97;;
29044;SDS011;16133;49.486;12.176;2023-06-14T08:16:40;5.03;;;3.50;;
29044;SDS011;16133;49.486;12.176;2023-06-14T08:19:05;4.35;;;3.22;;
29044;SDS011;16133;49.486;12.176;2023-06-14T08:21:31;5.03;;;3.45;;
29044;SDS011;16133;49.486;12.176;2023-06-14T08:23:58;4.90;;;3.15;;
29044;SDS011;16133;49.486;12.176;2023-06-14T08:26:24;6.53;;;3.72;;
29044;SDS011;16133;49.486;12.176;2023-06-14T08:28:53;3.70;;;2.75;;
29044;SDS011;16133;49.486;12.176;2023-06-14T08:31:19;5.30;;;3.45;;
29044;SDS011;16133;49.486;12.176;2023-06-14T08:33:45;3.78;;;2.90;;
29044;SDS011;16133;49.486;12.176;2023-06-14T08:36:10;5.72;;;3.60;;
29044;SDS011;16133;49.486;12.176;2023-06-14T08:38:37;4.35;;;3.42;;
29044;SDS011;16133;49.486;12.176;2023-06-14T08:41:03;4.13;;;2.92;;
29044;SDS011;16133;49.486;12.176;2023-06-14T08:43:31;7.75;;;3.20;;
29044;SDS011;16133;49.486;12.176;2023-06-14T08:46:03;4.93;;;3.17;;
29044;SDS011;16133;49.486;12.176;2023-06-14T08:48:31;5.38;;;3.33;;
29044;SDS011;16133;49.486;12.176;2023-06-14T08:50:59;7.43;;;3.55;;
29044;SDS011;16133;49.486;12.176;2023-06-14T08:53:32;5.68;;;3.20;;
29044;SDS011;16133;49.486;12.176;2023-06-14T08:56:01;6.30;;;3.00;;
29044;SDS011;16133;49.486;12.176;2023-06-14T08:58:30;4.72;;;3.20;;
29044;SDS011;16133;49.486;12.176;2023-06-14T09:00:56;7.40;;;3.42;;
29044;SDS011;16133;49.486;12.176;2023-06-14T09:03:23;4.85;;;2.70;;
29044;SDS011;16133;49.486;12.176;2023-06-14T09:05:53;5.53;;;3.33;;
29044;SDS011;16133;49.486;12.176;2023-06-14T09:08:19;4.03;;;3.00;;
29044;SDS011;16133;49.486;12.176;2023-06-14T09:10:47;4.65;;;2.90;;
29044;SDS011;16133;49.486;12.176;2023-06-14T09:13:12;3.92;;;2.92;;
29044;SDS011;16133;49.486;12.176;2023-06-14T09:15:38;4.57;;;3.00;;
29044;SDS011;16133;49.486;12.176;2023-06-14T09:18:03;4.65;;;3.28;;
29044;SDS011;16133;49.486;12.176;2023-06-14T09:20:29;5.70;;;2.75;;
29044;SDS011;16133;49.486;12.176;2023-06-14T09:22:55;6.68;;;3.17;;
29044;SDS011;16133;49.486;12.176;2023-06-14T09:25:21;6.63;;;3.17;;
29044;SDS011;16133;49.486;12.176;2023-06-14T09:27:51;6.25;;;3.80;;
29044;SDS011;16133;49.486;12.176;2023-06-14T09:30:17;7.32;;;2.90;;
29044;SDS011;16133;49.486;12.176;2023-06-14T09:32:45;6.50;;;3.13;;
29044;SDS011;16133;49.486;12.176;2023-06-14T09:35:11;4.35;;;2.97;;
29044;SDS011;16133;49.486;12.176;2023-06-14T09:37:36;4.03;;;2.90;;
29044;SDS011;16133;49.486;12.176;2023-06-14T09:40:05;5.20;;;2.85;;
29044;SDS011;16133;49.486;12.176;2023-06-14T09:42:32;4.68;;;3.22;;
29044;SDS011;16133;49.486;12.176;2023-06-14T09:45:00;7.20;;;3.35;;
29044;SDS011;16133;49.486;12.176;2023-06-14T09:47:27;3.70;;;2.80;;
29044;SDS011;16133;49.486;12.176;2023-06-14T09:49:53;3.38;;;2.80;;
29044;SDS011;16133;49.486;12.176;2023-06-14T09:52:20;4.70;;;3.25;;
29044;SDS011;16133;49.486;12.176;2023-06-14T09:54:46;5.13;;;3.45;;
29044;SDS011;16133;49.486;12.176;2023-06-14T09:57:15;7.25;;;3.45;;
29044;SDS011;16133;49.486;12.176;2023-06-14T09:59:42;6.43;;;3.40;;
29044;SDS011;16133;49.486;12.176;2023-06-14T10:02:14;5.00;;;3.63;;
29044;SDS011;16133;49.486;12.176;2023-06-14T10:04:49;6.53;;;2.90;;
29044;SDS011;16133;49.486;12.176;2023-06-14T10:07:22;5.97;;;3.03;;
29044;SDS011;16133;49.486;12.176;2023-06-14T10:09:51;4.65;;;3.03;;
29044;SDS011;16133;49.486;12.176;2023-06-14T10:12:18;3.90;;;2.97;;
29044;SDS011;16133;49.486;12.176;2023-06-14T10:14:48;5.20;;;3.13;;
29044;SDS011;16133;49.486;12.176;2023-06-14T10:17:31;3.78;;;3.08;;
29044;SDS011;16133;49.486;12.176;2023-06-14T10:23:08;4.45;;;3.58;;
29044;SDS011;16133;49.486;12.176;2023-06-14T10:25:38;4.65;;;3.42;;
29044;SDS011;16133;49.486;12.176;2023-06-14T10:33:32;3.63;;;2.90;;
29044;SDS011;16133;49.486;12.176;2023-06-14T10:41:24;4.90;;;3.67;;
29044;SDS011;16133;49.486;12.176;2023-06-14T10:46:55;4.28;;;2.90;;
29044;SDS011;16133;49.486;12.176;2023-06-14T10:52:12;5.75;;;3.47;;
29044;SDS011;16133;49.486;12.176;2023-06-14T10:57:34;3.90;;;3.22;;
29044;SDS011;16133;49.486;12.176;2023-06-14T11:00:07;3.47;;;3.17;;
29044;SDS011;16133;49.486;12.176;2023-06-14T11:05:32;4.45;;;3.13;;
29044;SDS011;16133;49.486;12.176;2023-06-14T11:11:05;6.47;;;3.38;;
29044;SDS011;16133;49.486;12.176;2023-06-14T11:13:32;5.72;;;3.05;;
29044;SDS011;16133;49.486;12.176;2023-06-14T11:15:57;3.97;;;2.90;;
29044;SDS011;16133;49.486;12.176;2023-06-14T11:18:23;4.40;;;2.78;;
29044;SDS011;16133;49.486;12.176;2023-06-14T11:20:49;5.38;;;2.97;;
29044;SDS011;16133;49.486;12.176;2023-06-14T11:23:15;3.53;;;3.03;;
29044;SDS011;16133;49.486;12.176;2023-06-14T11:25:40;4.65;;;3.03;;
29044;SDS011;16133;49.486;12.176;2023-06-14T11:28:06;6.60;;;2.95;;
29044;SDS011;16133;49.486;12.176;2023-06-14T11:30:32;5.00;;;3.35;;
29044;SDS011;16133;49.486;12.176;2023-06-14T11:32:58;5.50;;;2.80;;
29044;SDS011;16133;49.486;12.176;2023-06-14T11:35:24;4.90;;;2.85;;
29044;SDS011;16133;49.486;12.176;2023-06-14T11:37:54;4.10;;;3.03;;
29044;SDS011;16133;49.486;12.176;2023-06-14T11:40:23;6.55;;;3.30;;
29044;SDS011;16133;49.486;12.176;2023-06-14T11:42:49;4.63;;;2.83;;
29044;SDS011;16133;49.486;12.176;2023-06-14T11:45:14;3.63;;;2.85;;
29044;SDS011;16133;49.486;12.176;2023-06-14T11:47:40;3.90;;;2.90;;
29044;SDS011;16133;49.486;12.176;2023-06-14T11:50:06;4.38;;;2.75;;
29044;SDS011;16133;49.486;12.176;2023-06-14T11:52:33;3.15;;;2.63;;
29044;SDS011;16133;49.486;12.176;2023-06-14T11:54:59;4.30;;;3.05;;
29044;SDS011;16133;49.486;12.176;2023-06-14T11:57:25;4.70;;;2.70;;
29044;SDS011;16133;49.486;12.176;2023-06-14T11:59:50;5.85;;;2.75;;
29044;SDS011;16133;49.486;12.176;2023-06-14T12:02:17;5.82;;;3.08;;
29044;SDS011;16133;49.486;12.176;2023-06-14T12:04:43;5.40;;;2.92;;
29044;SDS011;16133;49.486;12.176;2023-06-14T12:07:12;3.88;;;2.75;;
29044;SDS011;16133;49.486;12.176;2023-06-14T12:12:23;5.20;;;3.10;;
29044;SDS011;16133;49.486;12.176;2023-06-14T12:14:50;4.88;;;2.85;;
29044;SDS011;16133;49.486;12.176;2023-06-14T12:17:16;4.95;;;3.03;;
29044;SDS011;16133;49.486;12.176;2023-06-14T12:19:43;4.07;;;2.60;;
29044;SDS011;16133;49.486;12.176;2023-06-14T12:22:10;6.07;;;3.15;;
29044;SDS011;16133;49.486;12.176;2023-06-14T12:24:36;3.47;;;2.70;;
29044;SDS011;16133;49.486;12.176;2023-06-14T12:27:01;5.25;;;3.20;;
29044;SDS011;16133;49.486;12.176;2023-06-14T12:29:29;6.40;;;3.03;;
29044;SDS011;16133;49.486;12.176;2023-06-14T12:31:54;4.68;;;2.60;;
29044;SDS011;16133;49.486;12.176;2023-06-14T12:34:22;4.13;;;2.80;;
29044;SDS011;16133;49.486;12.176;2023-06-14T12:36:48;3.67;;;2.45;;
29044;SDS011;16133;49.486;12.176;2023-06-14T12:39:13;3.30;;;2.53;;
29044;SDS011;16133;49.486;12.176;2023-06-14T12:41:39;5.00;;;2.50;;
29044;SDS011;16133;49.486;12.176;2023-06-14T12:44:06;3.97;;;2.78;;
29044;SDS011;16133;49.486;12.176;2023-06-14T12:46:32;2.90;;;2.30;;
29044;SDS011;16133;49.486;12.176;2023-06-14T12:48:58;4.07;;;2.47;;
29044;SDS011;16133;49.486;12.176;2023-06-14T12:51:23;2.80;;;2.40;;
29044;SDS011;16133;49.486;12.176;2023-06-14T12:53:50;3.92;;;2.58;;
29044;SDS011;16133;49.486;12.176;2023-06-14T12:56:15;3.28;;;2.65;;
29044;SDS011;16133;49.486;12.176;2023-06-14T12:58:41;3.40;;;2.42;;
29044;SDS011;16133;49.486;12.176;2023-06-14T13:01:07;3.67;;;2.60;;
29044;SDS011;16133;49.486;12.176;2023-06-14T13:03:33;2.78;;;2.20;;
29044;SDS011;16133;49.486;12.176;2023-06-14T13:05:59;4.53;;;2.80;;
29044;SDS011;16133;49.486;12.176;2023-06-14T13:08:25;4.47;;;2.72;;
29044;SDS011;16133;49.486;12.176;2023-06-14T13:10:50;4.65;;;2.55;;
29044;SDS011;16133;49.486;12.176;2023-06-14T13:13:16;3.05;;;2.50;;
29044;SDS011;16133;49.486;12.176;2023-06-14T13:15:41;3.30;;;2.28;;
29044;SDS011;16133;49.486;12.176;2023-06-14T13:18:07;5.18;;;2.70;;
29044;SDS011;16133;49.486;12.176;2023-06-14T13:20:32;2.60;;;2.10;;
29044;SDS011;16133;49.486;12.176;2023-06-14T13:22:57;4.18;;;2.47;;
29044;SDS011;16133;49.486;12.176;2023-06-14T13:25:24;2.95;;;2.30;;
29044;SDS011;16133;49.486;12.176;2023-06-14T13:27:50;2.90;;;2.42;;
29044;SDS011;16133;49.486;12.176;2023-06-14T13:30:15;3.40;;;2.40;;
29044;SDS011;16133;49.486;12.176;2023-06-14T13:32:40;2.58;;;2.10;;
29044;SDS011;16133;49.486;12.176;2023-06-14T13:35:06;3.05;;;2.17;;
29044;SDS011;16133;49.486;12.176;2023-06-14T13:37:32;3.58;;;2.05;;
29044;SDS011;16133;49.486;12.176;2023-06-14T13:39:57;2.88;;;2.35;;
29044;SDS011;16133;49.486;12.176;2023-06-14T13:42:22;4.93;;;2.30;;
29044;SDS011;16133;49.486;12.176;2023-06-14T13:44:48;2.63;;;2.17;;
29044;SDS011;16133;49.486;12.176;2023-06-14T13:47:13;2.78;;;1.80;;
29044;SDS011;16133;49.486;12.176;2023-06-14T13:49:38;3.15;;;2.22;;
29044;SDS011;16133;49.486;12.176;2023-06-14T13:52:04;5.97;;;2.15;;
29044;SDS011;16133;49.486;12.176;2023-06-14T13:54:29;4.72;;;2.40;;
29044;SDS011;16133;49.486;12.176;2023-06-14T13:56:55;3.40;;;2.47;;
29044;SDS011;16133;49.486;12.176;2023-06-14T13:59:20;4.60;;;2.50;;
29044;SDS011;16133;49.486;12.176;2023-06-14T14:01:46;5.13;;;3.25;;
29044;SDS011;16133;49.486;12.176;2023-06-14T14:04:12;3.45;;;2.67;;
29044;SDS011;16133;49.486;12.176;2023-06-14T14:06:37;3.72;;;2.40;;
29044;SDS011;16133;49.486;12.176;2023-06-14T14:09:03;4.70;;;2.55;;
29044;SDS011;16133;49.486;12.176;2023-06-14T14:11:28;2.78;;;1.88;;
29044;SDS011;16133;49.486;12.176;2023-06-14T14:13:54;4.00;;;2.33;;
29044;SDS011;16133;49.486;12.176;2023-06-14T14:16:19;3.13;;;2.50;;
29044;SDS011;16133;49.486;12.176;2023-06-14T14:18:45;3.55;;;2.40;;
29044;SDS011;16133;49.486;12.176;2023-06-14T14:21:11;4.57;;;2.72;;
29044;SDS011;16133;49.486;12.176;2023-06-14T14:23:36;3.95;;;2.60;;
29044;SDS011;16133;49.486;12.176;2023-06-14T14:26:02;4.35;;;2.45;;
29044;SDS011;16133;49.486;12.176;2023-06-14T14:28:29;4.40;;;2.80;;
29044;SDS011;16133;49.486;12.176;2023-06-14T14:30:55;4.10;;;2.60;;
29044;SDS011;16133;49.486;12.176;2023-06-14T14:33:21;2.65;;;2.10;;
29044;SDS011;16133;49.486;12.176;2023-06-14T14:35:46;2.95;;;2.38;;
29044;SDS011;16133;49.486;12.176;2023-06-14T14:38:12;4.28;;;2.47;;
29044;SDS011;16133;49.486;12.176;2023-06-14T14:40:41;2.30;;;2.10;;
29044;SDS011;16133;49.486;12.176;2023-06-14T14:43:07;3.72;;;2.17;;
29044;SDS011;16133;49.486;12.176;2023-06-14T14:45:33;3.15;;;2.35;;
29044;SDS011;16133;49.486;12.176;2023-06-14T14:47:59;5.22;;;2.33;;
29044;SDS011;16133;49.486;12.176;2023-06-14T14:50:25;3.33;;;2.17;;
29044;SDS011;16133;49.486;12.176;2023-06-14T14:52:51;3.85;;;2.17;;
29044;SDS011;16133;49.486;12.176;2023-06-14T14:55:16;2.60;;;2.15;;
29044;SDS011;16133;49.486;12.176;2023-06-14T14:57:41;3.42;;;2.58;;
29044;SDS011;16133;49.486;12.176;2023-06-14T15:00:07;2.25;;;1.92;;
29044;SDS011;16133;49.486;12.176;2023-06-14T15:02:34;4.15;;;2.40;;
29044;SDS011;16133;49.486;12.176;2023-06-14T15:04:59;2.65;;;2.20;;